Time;durP1;ratioP1;P1;durP2;ratioP2;P2;SDS_P1;SDS_P2;PMS_P1;PMS_P2;Temp;Humidity;BMP_temperature;BMP_pressure;BME280_temperature;BME280_humidity;BME280_pressure;Samples;Min_cycle;Max_cycle;Signal;HPM_P1;HPM_P2
2022/03/11 00:00:38;;;;;;;13.00;9.70;;;;;;;0.12;64.62;97127.06;5030905;28;20504;-73
2022/03/11 00:03:07;;;;;;;18.13;10.53;;;;;;;-0.11;64.14;97102.88;5030921;28;20440;-73
2022/03/11 00:05:33;;;;;;;17.00;9.40;;;;;;;-0.17;64.26;97100.41;5030855;28;20442;-73
2022/03/11 00:08:00;;;;;;;12.50;9.20;;;;;;;-0.04;64.39;97132.06;5014431;28;20491;-72
2022/03/11 00:10:27;;;;;;;13.93;8.93;;;;;;;-0.12;63.65;97132.47;5014362;28;20494;-72
2022/03/11 00:12:53;;;;;;;12.93;9.40;;;;;;;-0.18;62.51;97130.03;5030717;28;20924;-72
2022/03/11 00:15:21;;;;;;;11.60;7.80;;;;;;;-0.20;61.37;97130.25;5047315;28;20499;-73
2022/03/11 00:17:48;;;;;;;11.87;9.20;;;;;;;-0.42;61.93;97119.00;5063712;28;20462;-72
2022/03/11 00:20:19;;;;;;;10.90;8.10;;;;;;;-0.21;61.15;97133.88;5011504;28;20445;-73
2022/03/11 00:22:49;;;;;;;11.80;8.63;;;;;;;-0.30;61.30;97122.31;5027594;28;20428;-72
2022/03/11 00:25:16;;;;;;;12.53;9.37;;;;;;;-0.42;60.41;97104.19;5027157;28;20927;-73
2022/03/11 00:27:44;;;;;;;13.20;9.00;;;;;;;-0.29;60.25;97131.69;5021159;28;20466;-73
2022/03/11 00:30:11;;;;;;;11.33;6.63;;;;;;;-0.39;60.36;97121.16;5030503;28;20845;-72
2022/03/11 00:32:38;;;;;;;9.60;8.10;;;;;;;-0.55;59.97;97101.13;5030370;28;20438;-72
2022/03/11 00:35:10;;;;;;;11.77;8.03;;;;;;;-0.35;59.96;97133.41;5063509;28;20475;-72
2022/03/11 00:37:41;;;;;;;16.80;7.73;;;;;;;-0.45;59.03;97122.06;5062779;28;20926;-72
2022/03/11 00:40:08;;;;;;;13.27;9.40;;;;;;;-0.30;59.09;97125.69;5030165;28;20450;-72
2022/03/11 00:42:35;;;;;;;11.37;8.10;;;;;;;-0.40;58.67;97132.53;5046649;28;20471;-72
2022/03/11 00:45:03;;;;;;;12.30;8.23;;;;;;;-0.70;58.81;97088.69;5031617;28;20462;-72
2022/03/11 00:47:29;;;;;;;10.37;7.83;;;;;;;-0.53;58.99;97128.47;5013971;28;20502;-72
2022/03/11 00:49:56;;;;;;;11.87;9.10;;;;;;;-0.38;59.13;97117.53;5031306;28;20535;-72
2022/03/11 00:52:23;;;;;;;9.83;7.93;;;;;;;-0.50;57.57;97124.59;5013650;28;20501;-72
2022/03/11 00:54:49;;;;;;;8.80;7.90;;;;;;;-0.73;57.43;97096.97;5013561;28;20463;-72
2022/03/11 00:57:16;;;;;;;12.13;7.77;;;;;;;-0.47;57.21;97119.72;5013648;28;20501;-72
2022/03/11 00:59:43;;;;;;;15.40;7.50;;;;;;;-0.53;57.45;97094.69;5031225;28;20435;-72
2022/03/11 01:02:10;;;;;;;6.97;6.27;;;;;;;-0.48;56.95;97104.38;5031140;28;20473;-72
2022/03/11 01:04:37;;;;;;;10.03;7.23;;;;;;;-0.52;57.25;97098.09;5029734;28;20886;-72
2022/03/11 01:07:03;;;;;;;9.40;7.40;;;;;;;-0.52;57.14;97121.47;5029706;28;20958;-72
2022/03/11 01:09:30;;;;;;;10.93;8.00;;;;;;;-0.77;57.07;97099.25;5062888;28;20557;-72
2022/03/11 01:11:57;;;;;;;14.00;8.53;;;;;;;-0.63;57.22;97113.50;5013413;28;20990;-72
2022/03/11 01:14:24;;;;;;;12.60;7.60;;;;;;;-0.81;57.28;97116.28;5013073;28;21006;-72
2022/03/11 01:16:51;;;;;;;13.27;8.33;;;;;;;-0.87;57.43;97096.47;5013155;28;20530;-72
2022/03/11 01:19:18;;;;;;;13.57;9.93;;;;;;;-0.54;57.10;97108.69;5029513;28;20954;-72
2022/03/11 01:21:44;;;;;;;13.93;7.77;;;;;;;-0.96;56.75;97074.50;5016057;28;20471;-72
2022/03/11 01:24:11;;;;;;;16.30;10.10;;;;;;;-0.69;57.74;97111.81;5029395;28;20996;-72
2022/03/11 01:26:37;;;;;;;8.87;7.27;;;;;;;-0.68;56.64;97104.81;5029208;28;20470;-72
2022/03/11 01:29:04;;;;;;;17.00;9.60;;;;;;;-0.95;57.14;97081.25;5013203;28;20493;-72
2022/03/11 01:31:32;;;;;;;16.37;9.63;;;;;;;-0.88;56.97;97110.47;5013332;28;20442;-71
2022/03/11 01:33:59;;;;;;;13.23;9.53;;;;;;;-0.91;56.87;97106.53;5013142;28;20586;-71
2022/03/11 01:36:26;;;;;;;7.67;6.83;;;;;;;-1.07;56.98;97075.34;5029368;28;20509;-71
2022/03/11 01:38:54;;;;;;;11.77;8.30;;;;;;;-1.15;56.16;97066.16;5029499;28;20535;-71
2022/03/11 01:41:20;;;;;;;11.23;7.97;;;;;;;-1.14;55.88;97075.50;5013111;28;20458;-72
2022/03/11 01:43:58;;;;;;;9.53;7.63;;;;;;;-1.01;56.33;97088.19;5029509;28;20498;-72
2022/03/11 01:46:25;;;;;;;9.83;7.00;;;;;;;-1.09;55.76;97073.00;5029435;28;20496;-72
2022/03/11 01:48:52;;;;;;;15.07;6.93;;;;;;;-1.18;55.66;97082.19;5032364;28;20913;-71
2022/03/11 01:51:19;;;;;;;8.83;6.90;;;;;;;-1.15;56.10;97079.13;5066312;28;20439;-71
2022/03/11 01:53:46;;;;;;;10.13;8.40;;;;;;;-1.35;56.71;97051.00;5034545;28;20509;-71
2022/03/11 01:56:14;;;;;;;7.83;6.57;;;;;;;-1.26;55.63;97079.94;5033196;28;20450;-71
2022/03/11 01:58:41;;;;;;;11.57;7.17;;;;;;;-1.30;55.51;97063.28;5033151;28;20529;-71
2022/03/11 02:01:08;;;;;;;9.53;6.70;;;;;;;-1.30;55.62;97077.03;5049528;28;20473;-71
2022/03/11 02:03:35;;;;;;;7.90;6.83;;;;;;;-1.39;55.28;97072.44;5032990;28;20460;-71
2022/03/11 02:06:03;;;;;;;9.23;7.60;;;;;;;-1.73;55.33;97035.25;5049457;28;20485;-71
2022/03/11 02:08:31;;;;;;;9.90;5.47;;;;;;;-1.72;55.01;97039.44;5032954;28;20557;-71
2022/03/11 02:10:58;;;;;;;11.53;6.50;;;;;;;-1.54;54.83;97053.00;5032845;28;20987;-71
2022/03/11 02:13:25;;;;;;;6.13;5.40;;;;;;;-1.61;54.33;97043.75;5016558;28;20443;-71
2022/03/11 02:15:52;;;;;;;8.93;6.83;;;;;;;-1.36;54.09;97070.16;5034677;28;20440;-72
2022/03/11 02:18:19;;;;;;;8.17;5.20;;;;;;;-1.41;54.16;97062.31;5032922;28;20435;-72
2022/03/11 02:20:48;;;;;;;9.27;6.20;;;;;;;-1.44;54.66;97074.94;5026136;28;20444;-72
2022/03/11 02:23:18;;;;;;;7.73;5.43;;;;;;;-1.57;53.75;97034.53;5013510;28;20476;-70
2022/03/11 02:25:44;;;;;;;10.00;6.87;;;;;;;-1.37;54.33;97060.03;5016461;28;20439;-70
2022/03/11 02:28:11;;;;;;;7.73;5.67;;;;;;;-1.61;53.95;97030.81;5033776;28;20916;-70
2022/03/11 02:30:37;;;;;;;6.57;5.93;;;;;;;-1.61;54.10;97026.41;5032479;28;20834;-71
2022/03/11 02:33:04;;;;;;;8.27;6.80;;;;;;;-1.57;54.23;97019.75;5033827;28;20467;-72
2022/03/11 02:35:31;;;;;;;7.53;6.73;;;;;;;-1.72;54.44;97019.47;5016122;28;20541;-71
2022/03/11 02:37:57;;;;;;;11.17;6.30;;;;;;;-1.42;54.06;97040.00;5016044;28;20441;-71
2022/03/11 02:40:24;;;;;;;8.07;6.13;;;;;;;-1.51;54.15;97038.78;5016243;28;20518;-71
2022/03/11 02:42:51;;;;;;;7.10;6.40;;;;;;;-1.66;53.70;97015.16;5033606;28;20424;-71
2022/03/11 02:45:17;;;;;;;10.47;6.67;;;;;;;-1.50;54.36;97056.69;5015862;28;20521;-71
2022/03/11 02:47:44;;;;;;;10.13;5.63;;;;;;;-1.57;53.77;97024.16;5032092;28;20917;-71
2022/03/11 02:50:10;;;;;;;9.20;6.50;;;;;;;-1.64;53.71;97032.06;5032233;28;20518;-71
2022/03/11 02:52:37;;;;;;;7.80;6.13;;;;;;;-1.53;54.05;97036.41;5033385;28;20439;-72
2022/03/11 02:55:04;;;;;;;9.40;5.60;;;;;;;-1.63;53.63;97023.25;5015782;28;20498;-72
2022/03/11 02:57:31;;;;;;;9.00;5.77;;;;;;;-1.80;54.08;97012.06;5015673;28;20469;-72
2022/03/11 02:59:57;;;;;;;8.07;7.10;;;;;;;-1.87;53.54;96995.84;5047940;28;20491;-72
2022/03/11 03:02:24;;;;;;;10.20;6.53;;;;;;;-1.56;54.02;97036.09;5048351;28;20472;-72
2022/03/11 03:04:51;;;;;;;12.33;5.37;;;;;;;-1.73;53.81;96998.97;5033267;28;20454;-71
2022/03/11 03:07:17;;;;;;;11.37;5.93;;;;;;;-1.78;54.08;96989.28;5031777;28;20443;-72
2022/03/11 03:09:45;;;;;;;7.10;5.77;;;;;;;-1.80;54.05;97014.66;5064625;28;20547;-72
2022/03/11 03:12:11;;;;;;;8.50;5.67;;;;;;;-1.75;54.55;97004.38;5048244;28;20456;-73
2022/03/11 03:14:38;;;;;;;7.00;5.73;;;;;;;-2.13;54.33;96960.91;5015298;28;20495;-72
2022/03/11 03:17:06;;;;;;;7.80;5.10;;;;;;;-1.63;54.23;97038.03;5031579;28;20566;-72
2022/03/11 03:19:35;;;;;;;9.87;5.90;;;;;;;-1.65;53.86;97038.25;5031628;28;20433;-72
2022/03/11 03:22:03;;;;;;;7.10;5.70;;;;;;;-1.69;54.20;97034.56;5030664;28;20443;-72
2022/03/11 03:24:31;;;;;;;13.70;6.93;;;;;;;-1.59;54.33;97032.16;5022356;28;20490;-72
2022/03/11 03:26:57;;;;;;;9.73;6.77;;;;;;;-1.61;54.29;97031.59;5032768;28;20427;-72
2022/03/11 03:29:24;;;;;;;10.80;6.80;;;;;;;-1.63;53.89;97028.44;5031168;28;20548;-72
2022/03/11 03:31:57;;;;;;;8.47;6.87;;;;;;;-1.69;54.57;97019.00;5013722;28;20472;-72
2022/03/11 03:34:31;;;;;;;7.10;5.20;;;;;;;-1.64;54.09;97026.88;5024757;28;20462;-73
2022/03/11 03:37:00;;;;;;;10.03;6.07;;;;;;;-1.67;53.80;97029.16;5031221;28;20435;-72
2022/03/11 03:39:27;;;;;;;8.90;5.80;;;;;;;-1.90;53.91;96996.31;5034727;28;20476;-74
2022/03/11 03:41:55;;;;;;;12.73;7.40;;;;;;;-1.96;54.35;97002.41;5064425;28;20448;-73
2022/03/11 03:44:22;;;;;;;8.33;5.50;;;;;;;-1.99;54.41;97023.59;5030900;28;20506;-73
2022/03/11 03:46:49;;;;;;;8.40;5.53;;;;;;;-1.99;54.66;97024.38;5032480;28;20793;-73
2022/03/11 03:49:16;;;;;;;8.90;6.80;;;;;;;-2.04;54.67;97013.13;5034311;28;20568;-73
2022/03/11 03:51:44;;;;;;;7.70;5.50;;;;;;;-2.02;54.66;97006.69;5032403;28;20434;-73
2022/03/11 03:54:11;;;;;;;7.17;5.90;;;;;;;-2.00;53.93;96999.50;5033932;28;20476;-73
2022/03/11 03:56:39;;;;;;;12.20;6.60;;;;;;;-1.91;54.74;97020.63;5030828;28;20859;-73
2022/03/11 03:59:07;;;;;;;10.00;5.90;;;;;;;-1.85;54.56;97017.94;5015987;28;20445;-73
2022/03/11 04:01:39;;;;;;;7.83;5.83;;;;;;;-2.11;54.74;97003.69;5012501;28;21071;-73
2022/03/11 04:04:07;;;;;;;11.00;6.47;;;;;;;-2.07;55.07;97011.78;5013390;28;20470;-73
2022/03/11 04:06:36;;;;;;;11.67;5.10;;;;;;;-2.10;54.98;97010.44;5014407;28;20522;-73
2022/03/11 04:09:06;;;;;;;7.80;5.80;;;;;;;-2.15;55.23;97009.53;5063630;28;20502;-73
2022/03/11 04:11:34;;;;;;;13.27;7.10;;;;;;;-2.13;55.09;97008.31;5029785;28;20426;-73
2022/03/11 04:14:02;;;;;;;7.70;5.50;;;;;;;-2.03;55.16;97010.31;5030473;28;21146;-73
2022/03/11 04:16:30;;;;;;;7.40;5.97;;;;;;;-2.29;55.35;96992.66;5020632;28;20427;-73
2022/03/11 04:18:57;;;;;;;8.87;6.70;;;;;;;-2.17;55.63;97009.75;4999208;28;20439;-73
2022/03/11 04:21:25;;;;;;;10.30;6.90;;;;;;;-2.40;55.83;97000.25;5019810;28;20803;-73
2022/03/11 04:23:52;;;;;;;7.37;5.80;;;;;;;-2.48;57.64;97010.94;5010402;28;20464;-73
2022/03/11 04:26:18;;;;;;;9.87;6.50;;;;;;;-2.79;57.87;96972.47;5010494;28;20493;-73
2022/03/11 04:28:45;;;;;;;11.07;6.97;;;;;;;-2.86;58.29;96987.28;5048731;28;20447;-73
2022/03/11 04:31:12;;;;;;;10.87;6.47;;;;;;;-2.91;58.70;97005.28;5034502;28;20446;-73
2022/03/11 04:33:41;;;;;;;5.80;5.30;;;;;;;-2.97;58.86;97002.56;5029397;28;20463;-73
2022/03/11 04:36:10;;;;;;;10.50;6.33;;;;;;;-2.95;58.82;96994.59;5017035;28;20795;-73
2022/03/11 04:38:38;;;;;;;9.40;6.37;;;;;;;-2.89;58.60;96980.78;5004755;28;20466;-73
2022/03/11 04:41:05;;;;;;;9.10;6.30;;;;;;;-2.68;58.51;96995.72;5030842;28;20844;-73
2022/03/11 04:43:33;;;;;;;8.93;6.20;;;;;;;-2.73;58.88;97002.59;5011577;28;20465;-73
2022/03/11 04:46:00;;;;;;;7.63;6.23;;;;;;;-2.72;58.89;96983.47;5044412;28;20479;-73
2022/03/11 04:48:27;;;;;;;9.93;5.77;;;;;;;-2.60;59.00;96994.63;5030029;28;20483;-72
2022/03/11 04:50:54;;;;;;;10.60;6.93;;;;;;;-2.87;59.08;96962.44;5030138;28;20462;-73
2022/03/11 04:53:20;;;;;;;10.03;5.60;;;;;;;-2.60;58.40;96999.00;4993880;28;20535;-72
2022/03/11 04:55:47;;;;;;;7.63;6.57;;;;;;;-2.93;58.43;96953.00;5044731;28;20464;-72
2022/03/11 04:58:14;;;;;;;8.13;5.30;;;;;;;-2.78;58.68;96981.78;5063007;28;20432;-72
2022/03/11 05:00:40;;;;;;;8.80;6.57;;;;;;;-2.77;59.07;96978.19;5014536;28;20897;-72
2022/03/11 05:03:07;;;;;;;7.80;6.50;;;;;;;-2.86;59.36;96966.59;5020143;28;20443;-72
2022/03/11 05:05:34;;;;;;;10.67;6.43;;;;;;;-2.77;59.43;96973.03;5031361;28;20426;-72
2022/03/11 05:08:01;;;;;;;5.80;5.20;;;;;;;-2.54;59.39;97003.25;5020614;28;20460;-72
2022/03/11 05:10:28;;;;;;;15.37;6.50;;;;;;;-2.64;58.89;96998.66;5012169;28;20578;-72
2022/03/11 05:12:54;;;;;;;6.80;5.47;;;;;;;-2.77;59.96;97001.47;5020516;28;20425;-72
2022/03/11 05:15:24;;;;;;;14.03;8.50;;;;;;;-3.02;59.67;96986.94;4996210;28;20994;-72
2022/03/11 05:17:51;;;;;;;7.87;6.23;;;;;;;-2.92;59.57;96995.97;5052629;28;20436;-72
2022/03/11 05:20:18;;;;;;;8.23;6.40;;;;;;;-2.94;60.16;96987.63;5009758;28;20437;-72
2022/03/11 05:22:45;;;;;;;7.40;5.77;;;;;;;-3.20;59.64;96957.81;5018943;28;20438;-71
2022/03/11 05:25:12;;;;;;;9.27;6.13;;;;;;;-3.06;59.40;96988.41;5013064;28;20491;-71
2022/03/11 05:27:38;;;;;;;8.80;6.00;;;;;;;-3.12;60.28;96981.53;5009852;28;20491;-72
2022/03/11 05:30:07;;;;;;;8.70;5.90;;;;;;;-2.92;60.21;97001.13;5023370;28;20470;-71
2022/03/11 05:32:42;;;;;;;11.60;6.30;;;;;;;-2.99;60.55;96989.09;5013086;28;20485;-71
2022/03/11 05:35:10;;;;;;;6.23;5.63;;;;;;;-3.24;61.03;96960.03;5029182;28;20454;-71
2022/03/11 05:37:37;;;;;;;15.10;9.27;;;;;;;-2.91;60.92;97005.28;5030690;28;20869;-71
2022/03/11 05:40:04;;;;;;;10.37;7.50;;;;;;;-2.90;61.50;97004.28;5045705;28;20430;-71
2022/03/11 05:42:31;;;;;;;12.30;7.87;;;;;;;-3.14;61.64;96998.28;5012988;28;20474;-71
2022/03/11 05:44:58;;;;;;;12.57;8.80;;;;;;;-3.49;62.47;96974.91;5012821;28;20479;-71
2022/03/11 05:47:25;;;;;;;15.27;7.97;;;;;;;-3.19;61.92;97005.94;5029242;28;20532;-71
2022/03/11 05:49:51;;;;;;;8.63;6.17;;;;;;;-3.18;61.53;96994.56;5029270;28;20461;-71
2022/03/11 05:52:18;;;;;;;10.37;7.13;;;;;;;-3.22;62.40;96980.50;5029090;28;20484;-71
2022/03/11 05:54:45;;;;;;;8.93;6.40;;;;;;;-2.97;62.53;96981.88;5030559;28;20981;-71
2022/03/11 05:57:11;;;;;;;16.47;6.10;;;;;;;-2.76;60.53;97005.66;5046268;28;20479;-71
2022/03/11 05:59:38;;;;;;;8.33;5.67;;;;;;;-2.68;61.70;97000.13;5045536;28;20940;-70
2022/03/11 06:02:05;;;;;;;9.80;6.47;;;;;;;-2.53;61.15;97004.88;5029208;28;20432;-70
2022/03/11 06:04:32;;;;;;;12.10;7.83;;;;;;;-2.86;60.44;96984.72;5029015;28;20470;-70
2022/03/11 06:06:59;;;;;;;12.87;7.57;;;;;;;-2.83;60.23;96981.66;5029110;28;20493;-70
2022/03/11 06:09:25;;;;;;;9.50;7.20;;;;;;;-2.71;61.39;96998.78;5030304;28;20506;-71
2022/03/11 06:11:53;;;;;;;9.47;7.47;;;;;;;-2.98;60.98;97010.56;5029229;28;20842;-71
2022/03/11 06:14:22;;;;;;;9.90;7.67;;;;;;;-2.92;61.16;97003.72;5030295;28;21030;-71
2022/03/11 06:16:49;;;;;;;10.73;8.03;;;;;;;-3.29;60.89;96983.19;5029148;28;20463;-70
2022/03/11 06:19:16;;;;;;;9.83;7.10;;;;;;;-3.38;61.55;96977.53;5029125;28;20423;-70
2022/03/11 06:21:42;;;;;;;8.43;7.40;;;;;;;-3.40;61.66;96987.31;5015622;28;20468;-70
2022/03/11 06:24:09;;;;;;;8.80;6.53;;;;;;;-3.51;62.51;96984.69;5029021;28;20492;-70
2022/03/11 06:26:36;;;;;;;15.30;6.57;;;;;;;-3.48;62.37;96979.06;5029043;28;20941;-70
2022/03/11 06:29:03;;;;;;;10.53;6.83;;;;;;;-3.33;61.08;96987.22;5028861;28;20455;-70
2022/03/11 06:31:30;;;;;;;12.77;7.37;;;;;;;-2.99;61.32;97017.53;5012671;28;20952;-70
2022/03/11 06:33:58;;;;;;;14.00;8.13;;;;;;;-3.05;61.45;97017.66;5029011;28;20463;-70
2022/03/11 06:36:25;;;;;;;9.87;6.93;;;;;;;-3.05;61.83;97022.81;5032427;28;20438;-70
2022/03/11 06:38:52;;;;;;;11.07;7.27;;;;;;;-3.18;61.29;96987.59;5048965;28;20463;-70
2022/03/11 06:41:18;;;;;;;9.23;6.23;;;;;;;-2.86;61.19;97016.53;5033734;28;20511;-70
2022/03/11 06:43:45;;;;;;;8.17;7.47;;;;;;;-2.66;60.32;97013.63;5041165;28;20525;-70
2022/03/11 06:46:18;;;;;;;7.53;6.47;;;;;;;-2.89;60.07;96974.81;5029782;28;20428;-70
2022/03/11 06:48:44;;;;;;;12.87;6.80;;;;;;;-2.58;59.85;97015.88;5032446;28;20482;-70
2022/03/11 06:51:11;;;;;;;9.77;6.70;;;;;;;-2.40;59.67;97013.19;5033611;28;20427;-70
2022/03/11 06:53:56;;;;;;;9.90;6.17;;;;;;;-2.30;59.13;97017.78;5032508;28;20447;-70
2022/03/11 06:56:22;;;;;;;10.43;5.80;;;;;;;-2.17;57.76;97007.19;5032147;28;21016;-70
2022/03/11 06:58:49;;;;;;;11.63;7.40;;;;;;;-2.19;58.17;96992.88;5032083;28;21043;-70
2022/03/11 07:01:33;;;;;;;6.43;5.33;;;;;;;-2.02;57.41;97005.91;5032206;28;20434;-70
2022/03/11 07:04:02;;;;;;;10.10;6.73;;;;;;;-2.06;57.47;96960.75;5033263;28;20882;-71
2022/03/11 07:06:46;;;;;;;9.03;6.47;;;;;;;-1.50;55.67;97007.44;5032053;28;20928;-71
2022/03/11 07:09:13;;;;;;;10.40;6.17;;;;;;;-1.73;56.21;96968.66;5018364;28;20555;-71
2022/03/11 07:11:39;;;;;;;11.83;6.80;;;;;;;-1.21;55.54;97015.19;5021040;28;20486;-71
2022/03/11 07:14:24;;;;;;;8.40;6.10;;;;;;;-1.31;54.85;96984.69;5005953;28;20850;-71
2022/03/11 07:16:52;;;;;;;9.10;4.97;;;;;;;-0.90;53.97;97013.88;5033239;28;20428;-71
2022/03/11 07:19:19;;;;;;;7.40;5.63;;;;;;;-0.93;54.09;96978.03;5031874;28;20892;-71
2022/03/11 07:22:05;;;;;;;8.13;5.80;;;;;;;-0.57;53.45;97014.88;5018512;28;20423;-71
2022/03/11 07:24:32;;;;;;;8.23;5.90;;;;;;;-0.52;52.71;96996.81;5031666;28;20475;-71
2022/03/11 07:27:00;;;;;;;8.87;6.27;;;;;;;-0.06;53.11;97019.75;5032886;28;20462;-71
2022/03/11 07:29:44;;;;;;;9.20;6.70;;;;;;;-0.14;52.74;97001.97;5031426;28;20468;-72
2022/03/11 07:32:12;;;;;;;7.80;6.33;;;;;;;0.10;52.42;97027.75;5047974;28;20985;-73
2022/03/11 07:34:39;;;;;;;7.67;6.40;;;;;;;0.27;52.24;97025.88;5048076;28;20895;-71
2022/03/11 07:37:23;;;;;;;7.00;6.30;;;;;;;0.26;51.13;97021.69;5032831;28;20496;-71
2022/03/11 07:39:50;;;;;;;9.60;6.60;;;;;;;0.47;51.46;97033.91;5027627;28;20437;-71
2022/03/11 07:42:17;;;;;;;9.57;7.80;;;;;;;0.39;50.66;96994.53;4995395;28;20526;-71
2022/03/11 07:44:44;;;;;;;8.47;6.13;;;;;;;0.38;51.15;96982.56;5029995;28;20542;-71
2022/03/11 07:47:11;;;;;;;10.10;6.47;;;;;;;0.64;50.80;97014.81;5031238;28;20502;-72
2022/03/11 07:49:38;;;;;;;9.63;6.53;;;;;;;1.07;51.35;97035.53;5047800;28;20463;-71
2022/03/11 07:52:05;;;;;;;8.77;5.93;;;;;;;1.12;50.20;97043.38;5031511;28;20535;-71
2022/03/11 07:54:32;;;;;;;8.67;5.93;;;;;;;1.14;50.08;97024.91;4996905;28;20543;-70
2022/03/11 07:57:16;;;;;;;14.10;5.90;;;;;;;1.53;49.56;97037.69;5028349;28;20511;-70
2022/03/11 07:59:43;;;;;;;10.83;6.93;;;;;;;1.23;49.40;97010.41;5032500;28;20420;-70
2022/03/11 08:02:09;;;;;;;9.10;6.77;;;;;;;1.41;48.76;97043.09;5014708;28;20857;-71
2022/03/11 08:04:55;;;;;;;10.10;6.50;;;;;;;1.59;48.41;97019.22;5031414;28;20506;-71
2022/03/11 08:07:22;;;;;;;10.03;6.50;;;;;;;1.45;47.68;97013.66;5031036;28;20535;-71
2022/03/11 08:09:49;;;;;;;7.40;6.70;;;;;;;1.40;48.15;97007.66;5032060;28;20505;-71
2022/03/11 08:12:34;;;;;;;7.67;5.97;;;;;;;1.57;47.20;97010.88;5031385;28;21118;-71
2022/03/11 08:15:01;;;;;;;7.60;5.93;;;;;;;1.86;47.05;97026.16;5032117;28;20478;-72
2022/03/11 08:17:45;;;;;;;8.00;5.00;;;;;;;1.84;46.01;97031.63;5032275;28;20863;-72
2022/03/11 08:20:12;;;;;;;8.40;6.20;;;;;;;1.71;46.44;97026.88;5028865;28;20438;-72
2022/03/11 08:22:38;;;;;;;7.77;6.40;;;;;;;1.87;46.24;97035.56;5020019;28;20529;-72
2022/03/11 08:25:10;;;;;;;7.53;5.90;;;;;;;1.94;45.91;97007.44;5030658;28;20459;-72
2022/03/11 08:27:39;;;;;;;7.87;5.27;;;;;;;2.05;45.40;97035.13;5030688;28;20526;-72
2022/03/11 08:30:07;;;;;;;7.43;5.90;;;;;;;2.16;45.17;97036.75;5031881;28;20454;-72
2022/03/11 08:32:34;;;;;;;9.97;6.77;;;;;;;1.89;44.80;97010.03;5030913;28;20867;-72
2022/03/11 08:35:01;;;;;;;14.73;5.27;;;;;;;2.33;44.54;97033.94;5047448;28;20527;-72
2022/03/11 08:37:36;;;;;;;8.30;6.03;;;;;;;2.02;44.50;97005.16;5031334;28;20450;-72
2022/03/11 08:40:24;;;;;;;8.27;5.60;;;;;;;2.31;44.80;97002.91;5032229;28;20798;-72
2022/03/11 08:42:52;;;;;;;8.47;5.77;;;;;;;2.23;44.19;97007.81;5014339;28;20440;-72
2022/03/11 08:45:21;;;;;;;7.53;5.60;;;;;;;2.44;43.94;97026.94;5022172;28;20458;-72
2022/03/11 08:47:52;;;;;;;7.47;5.90;;;;;;;2.40;43.09;97031.88;5031625;28;20447;-73
2022/03/11 08:50:21;;;;;;;8.97;5.70;;;;;;;2.51;44.33;97030.09;5030235;28;20913;-72
2022/03/11 08:53:05;;;;;;;8.47;5.10;;;;;;;2.59;43.02;96996.44;5016724;28;20444;-72
2022/03/11 08:55:49;;;;;;;11.67;7.07;;;;;;;2.69;42.50;96985.25;5030225;28;20438;-72
2022/03/11 08:58:16;;;;;;;7.20;5.57;;;;;;;2.74;42.69;96982.63;5029862;28;20488;-73
2022/03/11 09:00:46;;;;;;;12.00;5.50;;;;;;;3.10;43.21;97014.81;5014975;28;20419;-73
2022/03/11 09:03:13;;;;;;;8.00;5.60;;;;;;;3.06;42.13;97003.28;5019365;28;20535;-72
2022/03/11 09:05:40;;;;;;;7.53;6.00;;;;;;;2.96;42.22;96991.03;5030164;28;20527;-73
2022/03/11 09:08:07;;;;;;;7.40;6.57;;;;;;;2.92;41.69;96976.91;5031579;28;20833;-72
2022/03/11 09:10:34;;;;;;;15.30;6.83;;;;;;;3.14;41.96;97012.44;5029929;28;20478;-72
2022/03/11 09:13:01;;;;;;;22.77;6.53;;;;;;;2.73;41.28;96956.78;5030359;28;20482;-73
2022/03/11 09:15:28;;;;;;;6.80;5.87;;;;;;;2.97;41.61;97008.25;5030058;28;20470;-72
2022/03/11 09:17:55;;;;;;;8.27;6.00;;;;;;;2.78;41.40;96969.84;5030342;28;20443;-72
2022/03/11 09:20:23;;;;;;;6.60;5.20;;;;;;;2.64;41.10;96959.91;5056698;28;21010;-73
2022/03/11 09:22:57;;;;;;;6.27;5.60;;;;;;;2.77;40.97;96966.44;5017153;28;20497;-73
2022/03/11 09:25:24;;;;;;;8.17;5.60;;;;;;;2.75;40.89;96962.53;5010346;28;20504;-72
2022/03/11 09:27:51;;;;;;;7.87;5.27;;;;;;;2.32;40.45;96866.19;5021948;28;20487;-73
2022/03/11 09:30:18;;;;;;;7.97;6.70;;;;;;;2.86;40.23;96977.16;5013793;28;20462;-72
2022/03/11 09:32:45;;;;;;;6.67;5.70;;;;;;;3.10;41.20;96982.66;5030350;28;20435;-72
2022/03/11 09:35:12;;;;;;;6.60;5.93;;;;;;;3.27;41.38;96985.78;5031321;28;20455;-73
2022/03/11 09:37:39;;;;;;;21.33;6.57;;;;;;;3.43;40.55;96966.44;5031491;28;20432;-73
2022/03/11 09:40:08;;;;;;;6.00;5.40;;;;;;;3.40;40.07;96972.19;5024690;28;20429;-73
2022/03/11 09:42:35;;;;;;;6.57;5.57;;;;;;;3.45;39.26;96987.84;5027304;28;20511;-73
2022/03/11 09:45:02;;;;;;;7.13;4.90;;;;;;;3.58;38.56;96998.81;5010903;28;20976;-72
2022/03/11 09:47:30;;;;;;;6.50;5.90;;;;;;;3.55;39.72;96979.22;5025131;28;20439;-73
2022/03/11 09:49:57;;;;;;;7.90;6.03;;;;;;;3.41;38.10;96963.28;5029976;28;20498;-73
2022/03/11 09:52:25;;;;;;;7.40;5.10;;;;;;;3.88;37.65;96998.75;5014786;28;20495;-73
2022/03/11 09:54:51;;;;;;;7.40;5.73;;;;;;;3.42;37.06;96967.47;5063872;28;20500;-73
2022/03/11 09:57:22;;;;;;;6.00;4.10;;;;;;;3.96;38.14;96992.19;5030649;28;20972;-72
2022/03/11 09:59:51;;;;;;;5.57;5.00;;;;;;;3.92;37.60;96984.09;5031876;28;20786;-73
2022/03/11 10:02:24;;;;;;;5.83;4.93;;;;;;;3.69;36.69;96963.75;5030115;28;20440;-73
2022/03/11 10:04:53;;;;;;;8.50;5.10;;;;;;;3.93;37.96;96980.44;5030092;28;20550;-73
2022/03/11 10:07:40;;;;;;;8.77;5.80;;;;;;;3.95;37.06;96990.63;5043886;28;20476;-73
2022/03/11 10:10:19;;;;;;;5.87;4.73;;;;;;;3.86;37.05;96990.38;5031841;28;20507;-73
2022/03/11 10:13:06;;;;;;;6.60;5.50;;;;;;;4.02;39.08;96965.75;5034021;28;20435;-73
2022/03/11 10:15:33;;;;;;;6.73;5.00;;;;;;;4.11;38.74;96994.75;5033637;28;20495;-73
2022/03/11 10:18:03;;;;;;;5.67;5.07;;;;;;;4.32;37.94;96996.22;5033609;28;20471;-73
2022/03/11 10:20:31;;;;;;;9.87;5.30;;;;;;;4.31;37.79;96999.13;5012899;28;20487;-73
2022/03/11 10:22:58;;;;;;;8.40;5.93;;;;;;;3.82;37.70;96947.50;5047200;28;20452;-72
2022/03/11 10:25:28;;;;;;;5.77;4.80;;;;;;;4.19;38.72;96991.59;5032883;28;20447;-73
2022/03/11 10:27:57;;;;;;;6.97;5.60;;;;;;;4.20;38.99;96979.28;5033605;28;20414;-73
2022/03/11 10:30:26;;;;;;;12.53;9.77;;;;;;;4.41;38.26;96973.69;5034922;28;20982;-73
2022/03/11 10:32:54;;;;;;;9.97;6.17;;;;;;;4.77;38.51;96985.78;5037595;28;20524;-73
2022/03/11 10:35:29;;;;;;;12.40;6.80;;;;;;;4.78;37.33;96976.84;5013329;28;20456;-73
2022/03/11 10:37:56;;;;;;;15.00;8.33;;;;;;;4.88;37.47;96982.03;5014965;28;20478;-72
2022/03/11 10:40:23;;;;;;;8.40;6.60;;;;;;;4.82;37.87;96952.47;5033491;28;20522;-73
2022/03/11 10:42:50;;;;;;;15.93;6.93;;;;;;;4.85;38.18;96944.06;5033369;28;20483;-73
2022/03/11 10:45:16;;;;;;;7.73;6.17;;;;;;;4.87;38.08;96960.28;5016814;28;20516;-73
2022/03/11 10:47:43;;;;;;;8.33;6.47;;;;;;;4.86;38.27;96944.84;5016858;28;20444;-73
2022/03/11 10:50:16;;;;;;;11.73;6.57;;;;;;;4.96;38.44;96960.50;5032935;28;20470;-73
2022/03/11 10:52:47;;;;;;;9.77;6.53;;;;;;;5.29;38.88;96972.78;5016561;28;20439;-73
2022/03/11 10:55:18;;;;;;;7.70;6.50;;;;;;;5.31;38.62;96975.91;5034165;28;20480;-73
2022/03/11 10:57:46;;;;;;;9.33;7.13;;;;;;;5.35;38.31;96970.91;5066278;28;20479;-73
2022/03/11 11:00:21;;;;;;;9.43;6.70;;;;;;;5.67;37.72;96972.19;5032874;28;20478;-73
2022/03/11 11:02:49;;;;;;;12.07;6.07;;;;;;;5.01;37.09;96952.59;5032863;28;20586;-73
2022/03/11 11:05:16;;;;;;;8.00;6.53;;;;;;;5.26;37.04;96968.09;5049374;28;20467;-73
2022/03/11 11:07:43;;;;;;;8.77;6.90;;;;;;;5.05;37.25;96964.06;5033959;28;20947;-73
2022/03/11 11:10:12;;;;;;;9.20;6.87;;;;;;;5.31;37.69;96968.03;5032563;28;21082;-73
2022/03/11 11:12:40;;;;;;;8.80;7.20;;;;;;;5.24;37.41;96941.38;5032398;28;20805;-73
2022/03/11 11:15:08;;;;;;;8.20;7.33;;;;;;;5.35;38.28;96923.72;5033946;28;20539;-73
2022/03/11 11:17:40;;;;;;;10.50;7.47;;;;;;;5.73;37.27;96963.19;5033845;28;20507;-73
2022/03/11 11:20:18;;;;;;;9.47;7.40;;;;;;;6.06;37.63;96957.06;5030844;28;20940;-73
2022/03/11 11:22:46;;;;;;;7.53;6.20;;;;;;;6.16;37.33;96953.53;5022400;28;20487;-73
2022/03/11 11:25:16;;;;;;;7.93;5.93;;;;;;;5.86;37.78;96949.38;5015944;28;20498;-73
2022/03/11 11:27:44;;;;;;;11.00;6.50;;;;;;;5.39;37.74;96923.94;5032336;28;20436;-73
2022/03/11 11:30:12;;;;;;;11.10;7.00;;;;;;;5.66;38.07;96955.66;5041197;28;20527;-73
2022/03/11 11:32:41;;;;;;;7.17;5.97;;;;;;;5.49;37.55;96918.59;5023615;28;20502;-73
2022/03/11 11:35:25;;;;;;;9.27;7.60;;;;;;;5.75;37.04;96934.84;5048348;28;20464;-73
2022/03/11 11:37:52;;;;;;;6.13;4.57;;;;;;;5.33;36.98;96907.47;5032253;28;20498;-73
2022/03/11 11:40:34;;;;;;;9.70;6.40;;;;;;;5.62;36.96;96902.97;5016907;28;20475;-73